createdAt,value
2018-09-27T00:01:46.494Z,27.90
2018-09-27T00:04:12.876Z,28.00
2018-09-27T00:06:39.207Z,28.17
2018-09-27T00:09:05.604Z,28.12
2018-09-27T00:11:31.981Z,27.97
2018-09-27T00:13:58.356Z,27.94
2018-09-27T00:16:24.704Z,27.97
2018-09-27T00:18:51.051Z,27.91
2018-09-27T00:21:17.443Z,28.10
2018-09-27T00:23:43.773Z,28.16
2018-09-27T00:26:10.183Z,28.16
2018-09-27T00:28:36.532Z,28.03
2018-09-27T00:31:02.941Z,28.01
2018-09-27T00:33:29.280Z,28.01
2018-09-27T00:35:55.649Z,28.06
2018-09-27T00:38:22.036Z,27.90
2018-09-27T00:40:48.419Z,28.10
2018-09-27T00:43:14.786Z,28.16
2018-09-27T00:45:41.180Z,28.21
2018-09-27T00:48:07.558Z,28.03
2018-09-27T00:50:33.900Z,27.92
2018-09-27T00:53:00.810Z,27.97
2018-09-27T00:55:27.204Z,27.99
2018-09-27T00:57:53.604Z,28.03
2018-09-27T01:00:19.998Z,28.09
2018-09-27T01:02:46.332Z,27.81
2018-09-27T01:05:12.729Z,28.24
2018-09-27T01:07:39.164Z,28.57
2018-09-27T01:10:05.536Z,28.85
2018-09-27T01:12:31.956Z,29.32
2018-09-27T01:14:58.390Z,29.33
2018-09-27T01:17:24.748Z,29.45
2018-09-27T01:19:51.107Z,29.38
2018-09-27T01:22:17.511Z,29.58
2018-09-27T01:24:43.852Z,29.68
2018-09-27T01:27:10.187Z,29.56
2018-09-27T01:29:36.580Z,29.45
2018-09-27T01:32:02.909Z,29.51
2018-09-27T01:34:29.345Z,29.46
2018-09-27T01:36:55.724Z,29.49
2018-09-27T01:39:22.172Z,29.29
2018-09-27T01:41:48.522Z,29.37
2018-09-27T01:44:14.904Z,29.37
2018-09-27T01:46:41.297Z,29.36
2018-09-27T01:49:07.640Z,29.31
2018-09-27T01:51:33.988Z,29.41
2018-09-27T01:54:00.323Z,29.16
2018-09-27T01:56:26.657Z,29.32
2018-09-27T01:58:52.991Z,29.26
2018-09-27T02:01:19.381Z,29.22
2018-09-27T02:03:45.782Z,29.39
2018-09-27T02:06:12.142Z,29.41
2018-09-27T02:08:38.677Z,29.35
2018-09-27T02:11:05.000Z,29.36
2018-09-27T02:13:31.379Z,29.55
2018-09-27T02:15:57.769Z,29.35
2018-09-27T02:18:24.123Z,29.39
2018-09-27T02:20:50.531Z,29.36
2018-09-27T02:23:16.956Z,29.44
2018-09-27T02:25:43.372Z,29.44
2018-09-27T02:28:09.724Z,29.46
2018-09-27T02:30:36.053Z,29.52
2018-09-27T02:33:02.398Z,29.41
2018-09-27T02:35:28.735Z,29.50
2018-09-27T02:37:55.063Z,29.63
2018-09-27T02:40:21.390Z,29.79
2018-09-27T02:42:47.745Z,29.85
2018-09-27T02:45:14.129Z,29.66
2018-09-27T02:47:40.480Z,29.75
2018-09-27T02:50:06.816Z,29.72
2018-09-27T02:52:33.150Z,29.61
2018-09-27T02:54:59.667Z,29.73
2018-09-27T02:57:26.011Z,29.74
2018-09-27T02:59:52.378Z,29.80
2018-09-27T03:02:18.853Z,29.93
2018-09-27T03:04:45.286Z,29.77
2018-09-27T03:07:11.646Z,29.82
2018-09-27T03:09:37.961Z,29.87
2018-09-27T03:12:04.290Z,29.87
2018-09-27T03:14:30.616Z,29.88
2018-09-27T03:16:57.116Z,29.88
2018-09-27T03:19:23.501Z,29.88
2018-09-27T03:21:49.904Z,29.77
2018-09-27T03:24:16.239Z,29.86
2018-09-27T03:26:42.665Z,29.85
2018-09-27T03:29:09.088Z,29.97
2018-09-27T03:31:35.416Z,29.95
2018-09-27T03:34:01.765Z,29.77
2018-09-27T03:36:28.141Z,29.84
2018-09-27T03:38:54.495Z,29.78
2018-09-27T03:41:20.868Z,29.80
2018-09-27T03:43:47.203Z,29.62
2018-09-27T03:46:13.560Z,29.44
2018-09-27T03:48:39.942Z,29.55
2018-09-27T03:51:06.320Z,29.61
2018-09-27T03:53:32.648Z,29.40
2018-09-27T03:55:59.015Z,29.42
2018-09-27T03:58:25.357Z,29.27
2018-09-27T04:00:51.674Z,29.40
2018-09-27T04:03:18.112Z,29.54
2018-09-27T04:05:44.473Z,29.48
2018-09-27T04:08:10.834Z,29.54
2018-09-27T04:10:37.241Z,29.51
2018-09-27T04:13:03.599Z,29.61
2018-09-27T04:15:29.983Z,29.45
2018-09-27T04:17:56.316Z,29.59
2018-09-27T04:20:22.672Z,29.43
2018-09-27T04:22:49.081Z,29.55
2018-09-27T04:25:15.419Z,29.69
2018-09-27T04:27:41.757Z,29.51
2018-09-27T04:30:08.095Z,29.63
2018-09-27T04:32:34.415Z,29.48
2018-09-27T04:35:00.762Z,29.42
2018-09-27T04:37:27.170Z,29.39
2018-09-27T04:39:53.574Z,29.16
2018-09-27T04:42:19.951Z,29.09
2018-09-27T04:44:46.302Z,29.16
2018-09-27T04:47:12.661Z,29.09
2018-09-27T04:49:39.000Z,28.75
2018-09-27T04:52:05.325Z,28.78
2018-09-27T04:54:31.701Z,28.86
2018-09-27T04:56:58.029Z,28.96
2018-09-27T04:59:24.455Z,28.77
2018-09-27T05:01:50.895Z,28.72
2018-09-27T05:04:17.229Z,28.55
2018-09-27T05:06:43.660Z,28.57
2018-09-27T05:09:10.025Z,28.21
2018-09-27T05:11:36.468Z,28.19
2018-09-27T05:14:02.831Z,27.90
2018-09-27T05:16:29.222Z,28.11
2018-09-27T05:18:55.594Z,28.10
2018-09-27T05:21:22.008Z,27.84
2018-09-27T05:23:48.374Z,27.65
2018-09-27T05:26:14.761Z,27.34
2018-09-27T05:28:41.609Z,27.43
2018-09-27T05:31:07.933Z,27.15
2018-09-27T05:33:34.301Z,27.00
2018-09-27T05:36:00.666Z,26.81
2018-09-27T05:38:27.058Z,26.76
2018-09-27T05:40:53.462Z,26.78
2018-09-27T05:43:19.824Z,26.69
2018-09-27T05:45:46.195Z,26.54
2018-09-27T05:48:12.657Z,26.33
2018-09-27T05:50:39.021Z,26.14
2018-09-27T05:53:05.424Z,26.04
2018-09-27T05:55:31.781Z,26.11
2018-09-27T05:57:58.162Z,25.89
2018-09-27T06:00:24.548Z,25.76
2018-09-27T06:02:51.047Z,25.71
2018-09-27T06:05:17.404Z,25.59
2018-09-27T06:07:43.807Z,25.59
2018-09-27T06:10:10.248Z,25.24
2018-09-27T06:12:36.600Z,25.29
2018-09-27T06:15:02.958Z,25.59
2018-09-27T06:17:29.314Z,25.33
2018-09-27T06:19:55.780Z,25.07
2018-09-27T06:22:22.074Z,24.91
2018-09-27T06:24:48.462Z,24.74
2018-09-27T06:27:14.797Z,24.98
2018-09-27T06:29:41.133Z,24.93
2018-09-27T06:32:07.505Z,24.81
2018-09-27T06:34:33.856Z,24.46
2018-09-27T06:37:00.204Z,24.51
2018-09-27T06:39:26.536Z,24.86
2018-09-27T06:41:52.966Z,24.35
2018-09-27T06:44:19.371Z,24.83
2018-09-27T06:46:45.828Z,24.55
2018-09-27T06:49:12.196Z,24.61
2018-09-27T06:51:38.654Z,24.32
2018-09-27T06:54:05.125Z,24.46
2018-09-27T06:56:31.507Z,24.49
2018-09-27T06:58:57.914Z,24.30
2018-09-27T07:01:24.299Z,24.28
2018-09-27T07:03:50.730Z,24.43
2018-09-27T07:06:17.189Z,24.53
2018-09-27T07:08:43.579Z,24.06
2018-09-27T07:11:09.927Z,24.52
2018-09-27T07:13:36.364Z,24.53
2018-09-27T07:16:02.757Z,24.64
2018-09-27T07:18:29.258Z,24.75
2018-09-27T07:20:55.676Z,25.60
2018-09-27T07:23:22.115Z,25.14
2018-09-27T07:25:48.517Z,24.88
2018-09-27T07:28:14.941Z,25.10
2018-09-27T07:30:41.325Z,24.86
2018-09-27T07:33:07.754Z,25.18
2018-09-27T07:35:34.304Z,24.65
2018-09-27T07:38:00.838Z,24.54
2018-09-27T07:40:27.472Z,24.33
2018-09-27T07:42:53.908Z,24.10
2018-09-27T07:45:20.297Z,24.10
2018-09-27T07:47:46.835Z,24.23
2018-09-27T07:50:13.316Z,23.97
2018-09-27T07:52:39.729Z,23.58
2018-09-27T07:55:06.121Z,23.81
2018-09-27T07:57:32.590Z,23.73
2018-09-27T07:59:58.984Z,22.61
2018-09-27T08:02:25.386Z,23.02
2018-09-27T08:04:51.899Z,23.05
2018-09-27T08:07:18.313Z,23.28
2018-09-27T08:09:44.725Z,22.92
2018-09-27T08:12:11.117Z,22.63
2018-09-27T08:14:37.540Z,22.69
2018-09-27T08:17:03.936Z,22.49
2018-09-27T08:19:30.290Z,22.24
2018-09-27T08:21:56.679Z,22.15
2018-09-27T08:24:23.079Z,22.24
2018-09-27T08:26:49.508Z,21.69
2018-09-27T08:29:15.868Z,22.24
2018-09-27T08:31:42.306Z,21.71
2018-09-27T08:34:08.664Z,22.00
2018-09-27T08:36:35.012Z,22.19
2018-09-27T08:39:01.423Z,21.50
2018-09-27T08:41:27.832Z,21.53
2018-09-27T08:43:54.233Z,21.46
2018-09-27T08:46:20.703Z,21.09
2018-09-27T08:48:47.096Z,20.98
2018-09-27T08:51:13.424Z,21.43
2018-09-27T08:53:39.794Z,20.48
2018-09-27T08:56:06.368Z,21.08
2018-09-27T08:58:32.707Z,20.03
2018-09-27T09:00:59.098Z,20.40
2018-09-27T09:03:25.517Z,19.95
2018-09-27T09:05:51.812Z,20.26
2018-09-27T09:08:18.204Z,20.13
2018-09-27T09:10:44.611Z,20.02
2018-09-27T09:13:10.976Z,19.73
2018-09-27T09:15:37.483Z,19.60
2018-09-27T09:18:03.769Z,19.53
2018-09-27T09:20:30.203Z,19.38
2018-09-27T09:22:57.095Z,20.17
2018-09-27T09:25:23.724Z,19.54
2018-09-27T09:27:50.083Z,19.42
2018-09-27T09:30:16.478Z,19.57
2018-09-27T09:32:42.929Z,19.22
2018-09-27T09:35:09.324Z,19.02
2018-09-27T09:37:35.791Z,19.36
2018-09-27T09:40:02.221Z,20.36
2018-09-27T09:42:28.738Z,20.20
2018-09-27T09:44:55.219Z,19.51
2018-09-27T09:47:21.694Z,19.43
2018-09-27T09:49:48.211Z,19.38
2018-09-27T09:52:14.643Z,19.71
2018-09-27T09:54:41.018Z,18.57
2018-09-27T09:57:07.409Z,19.39
2018-09-27T09:59:33.828Z,19.38
2018-09-27T10:02:00.248Z,19.44
2018-09-27T10:04:26.630Z,19.34
2018-09-27T10:06:53.111Z,19.32
2018-09-27T10:09:19.580Z,18.96
2018-09-27T10:11:45.984Z,18.66
2018-09-27T10:14:12.435Z,18.57
2018-09-27T10:16:38.860Z,18.62
2018-09-27T10:19:05.248Z,18.71
2018-09-27T10:21:31.704Z,18.23
2018-09-27T10:23:58.079Z,18.43
2018-09-27T10:26:24.492Z,19.18
2018-09-27T10:28:50.863Z,18.13
2018-09-27T10:31:17.353Z,18.66
2018-09-27T10:33:43.735Z,18.30
2018-09-27T10:36:10.139Z,18.43
2018-09-27T10:38:36.536Z,18.43
2018-09-27T10:41:02.964Z,18.35
2018-09-27T10:43:29.368Z,18.57
2018-09-27T10:45:55.802Z,18.15
2018-09-27T10:48:22.314Z,18.62
2018-09-27T10:50:48.764Z,18.54
2018-09-27T10:53:15.206Z,18.50
2018-09-27T10:55:41.641Z,18.53
2018-09-27T10:58:08.095Z,18.24
2018-09-27T11:00:34.480Z,18.19
2018-09-27T11:03:00.936Z,18.29
2018-09-27T11:05:27.352Z,18.52
2018-09-27T11:07:55.575Z,18.65
2018-09-27T11:10:24.095Z,17.99
2018-09-27T11:12:53.345Z,18.05
2018-09-27T11:15:21.396Z,17.89
2018-09-27T11:17:49.497Z,17.74
2018-09-27T11:20:16.728Z,18.06
2018-09-27T11:22:43.875Z,17.86
2018-09-27T11:25:10.485Z,17.98
2018-09-27T11:27:36.920Z,17.93
2018-09-27T11:30:05.887Z,17.96
2018-09-27T11:35:03.832Z,17.62
2018-09-27T11:37:31.292Z,18.39
2018-09-27T11:39:57.728Z,18.02
2018-09-27T11:42:24.277Z,18.28
2018-09-27T11:44:50.793Z,17.81
2018-09-27T11:47:17.498Z,18.17
2018-09-27T11:49:44.840Z,18.15
2018-09-27T11:52:11.154Z,18.70
2018-09-27T11:54:37.530Z,18.89
2018-09-27T11:57:03.907Z,18.48
2018-09-27T11:59:30.357Z,18.54
2018-09-27T12:01:56.784Z,18.60
2018-09-27T12:04:25.835Z,18.66
2018-09-27T12:06:52.450Z,18.52
2018-09-27T12:09:18.882Z,18.64
2018-09-27T12:11:45.353Z,18.52
2018-09-27T12:14:11.889Z,18.30
2018-09-27T12:16:38.276Z,18.44
2018-09-27T12:19:04.676Z,18.57
2018-09-27T12:21:31.185Z,18.51
2018-09-27T12:23:58.112Z,18.46
2018-09-27T12:26:24.648Z,18.51
2018-09-27T12:28:51.093Z,18.38
2018-09-27T12:31:17.641Z,18.55
2018-09-27T12:33:46.633Z,18.94
2018-09-27T12:36:13.032Z,18.73
2018-09-27T12:38:39.501Z,18.72
2018-09-27T12:41:06.049Z,18.71
2018-09-27T12:43:32.461Z,18.66
2018-09-27T12:45:59.044Z,18.87
2018-09-27T12:48:25.616Z,18.64
2018-09-27T12:50:51.966Z,18.64
2018-09-27T12:53:18.517Z,18.91
2018-09-27T12:55:44.891Z,18.76
2018-09-27T12:58:11.391Z,18.67
2018-09-27T13:00:37.931Z,18.77
2018-09-27T13:03:04.459Z,19.04
2018-09-27T13:05:30.976Z,19.09
2018-09-27T13:07:57.384Z,18.92
2018-09-27T13:10:23.989Z,18.89
2018-09-27T13:12:50.695Z,19.08
2018-09-27T13:15:17.070Z,18.95
2018-09-27T13:17:43.635Z,19.01
2018-09-27T13:20:10.321Z,19.56
2018-09-27T13:22:36.690Z,19.45
2018-09-27T13:25:03.111Z,19.19
2018-09-27T13:27:29.694Z,19.29
2018-09-27T13:29:57.084Z,19.54
2018-09-27T13:32:23.432Z,19.34
2018-09-27T13:34:49.823Z,19.37
2018-09-27T13:37:16.178Z,19.32
2018-09-27T13:39:42.632Z,18.86
2018-09-27T13:42:09.105Z,19.18
2018-09-27T13:44:35.541Z,19.05
2018-09-27T13:47:01.888Z,18.94
2018-09-27T13:49:28.298Z,18.89
2018-09-27T13:51:54.797Z,19.09
2018-09-27T13:54:21.347Z,19.01
2018-09-27T13:56:47.836Z,19.02
2018-09-27T13:59:14.341Z,18.86
2018-09-27T14:01:40.898Z,19.41
2018-09-27T14:04:07.264Z,19.12
2018-09-27T14:06:33.689Z,18.75
2018-09-27T14:09:00.243Z,18.81
2018-09-27T14:11:26.674Z,18.72
2018-09-27T14:13:53.155Z,18.82
2018-09-27T14:16:19.642Z,18.77
2018-09-27T14:18:46.097Z,18.88
2018-09-27T14:21:12.475Z,18.65
2018-09-27T14:23:38.873Z,18.91
2018-09-27T14:26:05.375Z,18.75
2018-09-27T14:28:31.837Z,18.80
2018-09-27T14:30:58.301Z,18.53
2018-09-27T14:33:24.672Z,18.48
2018-09-27T14:35:51.061Z,18.41
2018-09-27T14:38:17.433Z,18.63
2018-09-27T14:40:43.791Z,19.05
2018-09-27T14:43:10.174Z,18.67
2018-09-27T14:45:36.663Z,18.74
2018-09-27T14:48:03.095Z,18.65
2018-09-27T14:50:29.609Z,18.52
2018-09-27T14:52:56.038Z,18.51
2018-09-27T14:55:22.429Z,18.38
2018-09-27T14:57:48.925Z,18.42
2018-09-27T15:00:15.438Z,18.16
2018-09-27T15:02:41.836Z,18.43
2018-09-27T15:05:08.243Z,18.57
2018-09-27T15:07:34.735Z,18.12
2018-09-27T15:10:01.298Z,18.29
2018-09-27T15:12:28.583Z,18.20
2018-09-27T15:14:54.989Z,18.25
2018-09-27T15:17:21.478Z,18.44
2018-09-27T15:19:47.853Z,18.10
2018-09-27T15:22:14.225Z,18.35
2018-09-27T15:24:40.637Z,18.23
2018-09-27T15:27:07.094Z,18.04
2018-09-27T15:29:33.539Z,17.93
2018-09-27T15:32:00.051Z,17.85
2018-09-27T15:34:26.471Z,17.90
2018-09-27T15:36:52.878Z,17.90
2018-09-27T15:39:19.312Z,17.98
2018-09-27T15:41:45.825Z,18.30
2018-09-27T15:44:12.259Z,17.71
2018-09-27T15:46:39.002Z,17.83
2018-09-27T15:49:05.450Z,17.86
2018-09-27T15:51:31.873Z,17.74
2018-09-27T15:53:58.244Z,17.51
2018-09-27T15:56:24.858Z,17.54
2018-09-27T15:58:51.261Z,17.62
2018-09-27T16:01:17.724Z,17.59
2018-09-27T16:03:44.248Z,17.23
2018-09-27T16:06:10.769Z,17.62
2018-09-27T16:08:37.159Z,17.60
2018-09-27T16:11:03.635Z,17.23
2018-09-27T16:13:30.067Z,17.22
2018-09-27T16:15:56.666Z,17.25
2018-09-27T16:18:23.126Z,17.32
2018-09-27T16:20:49.588Z,17.11
2018-09-27T16:23:16.131Z,16.96
2018-09-27T16:25:42.527Z,17.03
2018-09-27T16:28:09.006Z,17.43
2018-09-27T16:30:35.436Z,17.26
2018-09-27T16:33:01.859Z,17.50
2018-09-27T16:35:28.363Z,17.57
2018-09-27T16:37:54.780Z,17.61
2018-09-27T16:40:21.281Z,17.54
2018-09-27T16:42:47.741Z,17.69
2018-09-27T16:45:14.200Z,17.67
2018-09-27T16:47:40.663Z,17.86
2018-09-27T16:50:07.048Z,17.72
2018-09-27T16:52:33.497Z,18.18
2018-09-27T16:54:59.889Z,18.06
2018-09-27T16:57:26.365Z,18.18
2018-09-27T16:59:52.772Z,18.22
2018-09-27T17:02:19.186Z,18.28
2018-09-27T17:04:45.637Z,18.42
2018-09-27T17:07:12.110Z,18.70
2018-09-27T17:09:38.512Z,18.75
2018-09-27T17:12:05.015Z,18.78
2018-09-27T17:14:31.514Z,18.80
2018-09-27T17:16:57.936Z,18.67
2018-09-27T17:19:24.387Z,18.79
2018-09-27T17:21:50.788Z,18.80
2018-09-27T17:24:17.261Z,18.89
2018-09-27T17:26:43.906Z,18.89
2018-09-27T17:29:10.354Z,19.05
2018-09-27T17:31:36.827Z,18.99
2018-09-27T17:34:03.204Z,19.04
2018-09-27T17:36:29.662Z,19.13
2018-09-27T17:38:56.076Z,19.08
2018-09-27T17:41:22.508Z,19.20
2018-09-27T17:43:48.920Z,19.38
2018-09-27T17:46:15.299Z,19.47
2018-09-27T17:48:42.376Z,19.47
2018-09-27T17:51:08.811Z,19.45
2018-09-27T17:53:35.178Z,19.64
2018-09-27T17:56:01.649Z,19.55
2018-09-27T17:58:28.024Z,19.61
2018-09-27T18:00:54.367Z,19.82
2018-09-27T18:03:20.708Z,19.79
2018-09-27T18:05:47.230Z,19.92
2018-09-27T18:08:13.663Z,20.02
2018-09-27T18:10:40.103Z,19.93
2018-09-27T18:13:06.469Z,19.89
2018-09-27T18:15:32.868Z,19.92
2018-09-27T18:17:59.333Z,20.06
2018-09-27T18:20:25.725Z,19.96
2018-09-27T18:22:52.160Z,20.15
2018-09-27T18:25:18.534Z,20.18
2018-09-27T18:27:44.947Z,20.08
2018-09-27T18:30:11.458Z,20.03
2018-09-27T18:32:37.891Z,20.18
2018-09-27T18:35:04.388Z,20.40
2018-09-27T18:37:30.922Z,20.14
2018-09-27T18:39:57.349Z,20.29
2018-09-27T18:42:23.762Z,20.31
2018-09-27T18:44:50.151Z,20.38
2018-09-27T18:47:16.625Z,20.49
2018-09-27T18:49:43.074Z,20.65
2018-09-27T18:52:10.229Z,20.75
2018-09-27T18:54:36.593Z,20.66
2018-09-27T18:57:02.965Z,20.66
2018-09-27T18:59:29.367Z,20.89
2018-09-27T19:01:55.771Z,20.85
2018-09-27T19:04:22.116Z,20.85
2018-09-27T19:06:48.493Z,21.08
2018-09-27T19:09:14.828Z,21.09
2018-09-27T19:11:41.266Z,20.99
2018-09-27T19:14:07.612Z,21.10
2018-09-27T19:16:34.014Z,21.30
2018-09-27T19:19:00.380Z,21.15
2018-09-27T19:21:26.819Z,21.37
2018-09-27T19:23:53.248Z,21.37
2018-09-27T19:26:19.610Z,21.40
2018-09-27T19:28:46.018Z,21.49
2018-09-27T19:31:12.421Z,21.49
2018-09-27T19:33:38.788Z,21.58
2018-09-27T19:36:05.120Z,21.60
2018-09-27T19:38:31.503Z,21.61
2018-09-27T19:40:57.841Z,21.67
2018-09-27T19:43:24.281Z,21.72
2018-09-27T19:45:50.677Z,21.82
2018-09-27T19:48:17.165Z,21.87
2018-09-27T19:50:43.537Z,22.01
2018-09-27T19:53:09.882Z,21.95
2018-09-27T19:55:36.222Z,21.98
2018-09-27T19:58:02.587Z,21.96
2018-09-27T20:00:28.947Z,22.11
2018-09-27T20:02:55.324Z,22.24
2018-09-27T20:05:21.660Z,22.11
2018-09-27T20:07:47.992Z,22.24
2018-09-27T20:10:14.375Z,22.43
2018-09-27T20:12:40.682Z,22.40
2018-09-27T20:15:07.017Z,22.41
2018-09-27T20:17:33.351Z,22.49
2018-09-27T20:19:59.676Z,22.54
2018-09-27T20:22:26.118Z,22.59
2018-09-27T20:24:52.486Z,22.76
2018-09-27T20:27:18.844Z,22.61
2018-09-27T20:29:45.188Z,22.82
2018-09-27T20:32:11.568Z,22.88
2018-09-27T20:34:38.002Z,22.89
2018-09-27T20:37:04.319Z,22.96
2018-09-27T20:39:30.695Z,23.06
2018-09-27T20:41:57.032Z,23.27
2018-09-27T20:44:23.421Z,23.48
2018-09-27T20:46:49.798Z,23.53
2018-09-27T20:49:16.127Z,23.55
2018-09-27T20:51:42.464Z,23.64
2018-09-27T20:54:08.797Z,23.58
2018-09-27T20:56:35.135Z,23.60
2018-09-27T20:59:01.529Z,23.73
2018-09-27T21:01:27.926Z,23.71
2018-09-27T21:03:54.256Z,23.88
2018-09-27T21:06:20.624Z,24.13
2018-09-27T21:08:47.020Z,24.12
2018-09-27T21:11:13.402Z,24.15
2018-09-27T21:13:39.888Z,24.27
2018-09-27T21:16:06.222Z,24.16
2018-09-27T21:18:32.543Z,24.14
2018-09-27T21:20:58.876Z,24.36
2018-09-27T21:23:25.207Z,24.33
2018-09-27T21:25:51.563Z,24.44
2018-09-27T21:28:17.908Z,24.58
2018-09-27T21:30:44.257Z,24.57
2018-09-27T21:33:10.588Z,24.57
2018-09-27T21:35:36.928Z,24.64
2018-09-27T21:38:03.360Z,24.72
2018-09-27T21:40:29.720Z,24.71
2018-09-27T21:42:56.053Z,24.81
2018-09-27T21:45:22.385Z,24.81
2018-09-27T21:47:48.718Z,24.94
2018-09-27T21:50:15.145Z,24.91
2018-09-27T21:52:41.476Z,25.03
2018-09-27T21:55:07.834Z,24.94
2018-09-27T21:57:34.240Z,24.94
2018-09-27T22:00:00.610Z,25.08
2018-09-27T22:02:26.960Z,25.02
2018-09-27T22:04:53.375Z,25.11
2018-09-27T22:07:19.740Z,25.21
2018-09-27T22:09:46.104Z,25.27
2018-09-27T22:12:12.450Z,25.27
2018-09-27T22:14:38.795Z,25.33
2018-09-27T22:17:05.153Z,25.27
2018-09-27T22:19:31.505Z,25.37
2018-09-27T22:21:57.875Z,25.41
2018-09-27T22:24:24.268Z,25.42
2018-09-27T22:26:50.625Z,25.53
2018-09-27T22:29:16.979Z,25.56
2018-09-27T22:31:43.338Z,25.56
2018-09-27T22:34:09.719Z,25.57
2018-09-27T22:36:36.160Z,25.53
2018-09-27T22:39:02.514Z,25.58
2018-09-27T22:41:28.929Z,25.62
2018-09-27T22:43:55.260Z,25.75
2018-09-27T22:46:21.633Z,25.83
2018-09-27T22:48:48.037Z,25.82
2018-09-27T22:51:14.455Z,25.85
2018-09-27T22:53:40.810Z,25.80
2018-09-27T22:56:07.217Z,25.84
2018-09-27T22:58:33.599Z,25.80
2018-09-27T23:00:59.954Z,25.90
2018-09-27T23:03:26.333Z,25.93
2018-09-27T23:05:52.695Z,26.04
2018-09-27T23:08:19.130Z,26.07
2018-09-27T23:10:45.520Z,26.04
2018-09-27T23:13:11.892Z,26.13
2018-09-27T23:15:38.320Z,26.06
2018-09-27T23:18:04.729Z,26.01
2018-09-27T23:20:31.078Z,26.10
2018-09-27T23:22:57.514Z,26.20
2018-09-27T23:25:23.876Z,26.06
2018-09-27T23:27:50.406Z,26.32
2018-09-27T23:30:16.771Z,26.40
2018-09-27T23:32:43.470Z,26.36
2018-09-27T23:35:09.873Z,26.33
2018-09-27T23:37:36.243Z,26.28
2018-09-27T23:40:02.665Z,26.39
2018-09-27T23:42:29.004Z,26.33
2018-09-27T23:44:55.400Z,26.38
2018-09-27T23:47:21.784Z,26.35
2018-09-27T23:49:48.117Z,26.40
2018-09-27T23:52:14.510Z,26.39
2018-09-27T23:54:40.861Z,26.46
2018-09-27T23:57:07.263Z,26.56
2018-09-27T23:59:33.653Z,26.53
